sensor_id;sensor_type;location;lat;lon;timestamp;pressure;altitude;pressure_sealevel;temperature;humidity
7026;BME280;3554;42.132;24.786;2023-07-30T00:01:52;98982.19;;;24.81;100.00
7026;BME280;3554;42.132;24.786;2023-07-30T00:04:19;98962.16;;;24.68;100.00
7026;BME280;3554;42.132;24.786;2023-07-30T00:06:46;98973.72;;;24.94;100.00
7026;BME280;3554;42.132;24.786;2023-07-30T00:09:13;98977.25;;;25.02;100.00
7026;BME280;3554;42.132;24.786;2023-07-30T00:11:40;98978.03;;;24.95;100.00
7026;BME280;3554;42.132;24.786;2023-07-30T00:14:08;98963.16;;;25.00;100.00
7026;BME280;3554;42.132;24.786;2023-07-30T00:16:34;98967.84;;;24.98;100.00
7026;BME280;3554;42.132;24.786;2023-07-30T00:19:01;98963.84;;;25.02;100.00
7026;BME280;3554;42.132;24.786;2023-07-30T00:21:28;98976.41;;;25.02;100.00
7026;BME280;3554;42.132;24.786;2023-07-30T00:23:55;98968.69;;;25.07;100.00
7026;BME280;3554;42.132;24.786;2023-07-30T00:26:22;98964.53;;;25.04;100.00
7026;BME280;3554;42.132;24.786;2023-07-30T00:28:51;98969.38;;;25.01;100.00
7026;BME280;3554;42.132;24.786;2023-07-30T00:31:19;98967.69;;;25.00;100.00
7026;BME280;3554;42.132;24.786;2023-07-30T00:33:46;98963.13;;;24.92;100.00
7026;BME280;3554;42.132;24.786;2023-07-30T00:36:13;98969.31;;;24.85;100.00
7026;BME280;3554;42.132;24.786;2023-07-30T00:38:40;98957.06;;;24.74;100.00
7026;BME280;3554;42.132;24.786;2023-07-30T00:41:07;98967.94;;;24.81;100.00
7026;BME280;3554;42.132;24.786;2023-07-30T00:43:33;98920.78;;;24.54;100.00
7026;BME280;3554;42.132;24.786;2023-07-30T00:46:00;98955.88;;;24.77;100.00
7026;BME280;3554;42.132;24.786;2023-07-30T00:48:29;98962.00;;;24.69;100.00
7026;BME280;3554;42.132;24.786;2023-07-30T00:50:56;98952.41;;;24.59;100.00
7026;BME280;3554;42.132;24.786;2023-07-30T00:53:24;98971.00;;;24.60;100.00
7026;BME280;3554;42.132;24.786;2023-07-30T00:55:52;98957.59;;;24.52;100.00
7026;BME280;3554;42.132;24.786;2023-07-30T00:58:20;98961.28;;;24.51;100.00
7026;BME280;3554;42.132;24.786;2023-07-30T01:00:48;98962.53;;;24.39;100.00
7026;BME280;3554;42.132;24.786;2023-07-30T01:03:14;98958.88;;;24.40;100.00
7026;BME280;3554;42.132;24.786;2023-07-30T01:05:43;98967.59;;;24.42;100.00
7026;BME280;3554;42.132;24.786;2023-07-30T01:08:10;98967.63;;;24.24;100.00
7026;BME280;3554;42.132;24.786;2023-07-30T01:10:38;98971.03;;;24.09;100.00
7026;BME280;3554;42.132;24.786;2023-07-30T01:13:08;98946.94;;;24.01;100.00
7026;BME280;3554;42.132;24.786;2023-07-30T01:15:36;98977.88;;;24.29;100.00
7026;BME280;3554;42.132;24.786;2023-07-30T01:18:04;98970.09;;;24.18;100.00
7026;BME280;3554;42.132;24.786;2023-07-30T01:20:31;98966.84;;;24.06;100.00
7026;BME280;3554;42.132;24.786;2023-07-30T01:22:59;98976.22;;;24.10;100.00
7026;BME280;3554;42.132;24.786;2023-07-30T01:25:28;98977.19;;;24.27;100.00
7026;BME280;3554;42.132;24.786;2023-07-30T01:27:59;98976.88;;;23.87;100.00
7026;BME280;3554;42.132;24.786;2023-07-30T01:30:30;98975.66;;;23.81;100.00
7026;BME280;3554;42.132;24.786;2023-07-30T01:32:59;98969.81;;;23.60;100.00
7026;BME280;3554;42.132;24.786;2023-07-30T01:35:27;98960.41;;;23.39;100.00
7026;BME280;3554;42.132;24.786;2023-07-30T01:37:54;98967.00;;;23.17;100.00
7026;BME280;3554;42.132;24.786;2023-07-30T01:40:23;98962.78;;;23.14;100.00
7026;BME280;3554;42.132;24.786;2023-07-30T01:42:50;98966.31;;;23.15;100.00
7026;BME280;3554;42.132;24.786;2023-07-30T01:45:17;98969.91;;;23.23;100.00
7026;BME280;3554;42.132;24.786;2023-07-30T01:47:43;98970.94;;;23.40;100.00
7026;BME280;3554;42.132;24.786;2023-07-30T01:50:10;98974.53;;;23.49;100.00
7026;BME280;3554;42.132;24.786;2023-07-30T01:52:37;98979.69;;;23.68;100.00
7026;BME280;3554;42.132;24.786;2023-07-30T01:55:05;98967.13;;;23.60;100.00
7026;BME280;3554;42.132;24.786;2023-07-30T01:57:33;98980.41;;;23.34;100.00
7026;BME280;3554;42.132;24.786;2023-07-30T02:00:00;98976.16;;;23.14;100.00
7026;BME280;3554;42.132;24.786;2023-07-30T02:02:28;98977.19;;;23.04;100.00
7026;BME280;3554;42.132;24.786;2023-07-30T02:04:55;98960.72;;;22.91;100.00
7026;BME280;3554;42.132;24.786;2023-07-30T02:07:22;98984.13;;;22.97;100.00
7026;BME280;3554;42.132;24.786;2023-07-30T02:09:48;98980.22;;;22.91;100.00
7026;BME280;3554;42.132;24.786;2023-07-30T02:12:15;98976.47;;;23.11;100.00
7026;BME280;3554;42.132;24.786;2023-07-30T02:14:43;98977.88;;;22.88;100.00
7026;BME280;3554;42.132;24.786;2023-07-30T02:17:10;98986.25;;;22.93;100.00
7026;BME280;3554;42.132;24.786;2023-07-30T02:19:37;98984.31;;;22.86;100.00
7026;BME280;3554;42.132;24.786;2023-07-30T02:22:04;98982.63;;;22.94;100.00
7026;BME280;3554;42.132;24.786;2023-07-30T02:24:31;98978.25;;;22.93;100.00
7026;BME280;3554;42.132;24.786;2023-07-30T02:26:58;98975.22;;;23.06;100.00
7026;BME280;3554;42.132;24.786;2023-07-30T02:29:25;98991.91;;;22.90;100.00
7026;BME280;3554;42.132;24.786;2023-07-30T02:31:53;98984.31;;;22.86;100.00
7026;BME280;3554;42.132;24.786;2023-07-30T02:34:20;98978.47;;;23.00;100.00
7026;BME280;3554;42.132;24.786;2023-07-30T02:36:48;98973.03;;;22.74;100.00
7026;BME280;3554;42.132;24.786;2023-07-30T02:39:15;98981.88;;;22.75;100.00
7026;BME280;3554;42.132;24.786;2023-07-30T02:41:42;98989.22;;;22.54;100.00
7026;BME280;3554;42.132;24.786;2023-07-30T02:44:09;98997.84;;;22.38;100.00
7026;BME280;3554;42.132;24.786;2023-07-30T02:46:36;99000.97;;;22.33;100.00
7026;BME280;3554;42.132;24.786;2023-07-30T02:49:04;98997.16;;;22.36;100.00
7026;BME280;3554;42.132;24.786;2023-07-30T02:51:31;98983.72;;;22.28;100.00
7026;BME280;3554;42.132;24.786;2023-07-30T02:53:58;99002.78;;;22.33;100.00
7026;BME280;3554;42.132;24.786;2023-07-30T02:56:25;98998.72;;;22.29;100.00
7026;BME280;3554;42.132;24.786;2023-07-30T02:58:52;99001.88;;;22.05;100.00
7026;BME280;3554;42.132;24.786;2023-07-30T03:01:19;99011.81;;;22.13;100.00
7026;BME280;3554;42.132;24.786;2023-07-30T03:03:46;99002.75;;;22.43;100.00
7026;BME280;3554;42.132;24.786;2023-07-30T03:06:14;99006.38;;;22.51;100.00
7026;BME280;3554;42.132;24.786;2023-07-30T03:08:42;99009.75;;;22.53;100.00
7026;BME280;3554;42.132;24.786;2023-07-30T03:11:09;99007.50;;;22.58;100.00
7026;BME280;3554;42.132;24.786;2023-07-30T03:13:36;99022.09;;;22.64;100.00
7026;BME280;3554;42.132;24.786;2023-07-30T03:16:03;99032.06;;;22.62;100.00
7026;BME280;3554;42.132;24.786;2023-07-30T03:18:29;98991.38;;;22.41;100.00
7026;BME280;3554;42.132;24.786;2023-07-30T03:20:58;99019.28;;;22.56;100.00
7026;BME280;3554;42.132;24.786;2023-07-30T03:23:27;99009.88;;;22.61;100.00
7026;BME280;3554;42.132;24.786;2023-07-30T03:25:54;99023.59;;;22.66;100.00
7026;BME280;3554;42.132;24.786;2023-07-30T03:28:20;99021.81;;;22.57;100.00
7026;BME280;3554;42.132;24.786;2023-07-30T03:30:47;99027.03;;;22.59;100.00
7026;BME280;3554;42.132;24.786;2023-07-30T03:33:14;99028.56;;;22.52;100.00
7026;BME280;3554;42.132;24.786;2023-07-30T03:35:41;99025.03;;;22.51;100.00
7026;BME280;3554;42.132;24.786;2023-07-30T03:38:07;99026.19;;;22.58;100.00
7026;BME280;3554;42.132;24.786;2023-07-30T03:40:36;99022.25;;;22.62;100.00
7026;BME280;3554;42.132;24.786;2023-07-30T03:43:02;98998.13;;;22.81;100.00
7026;BME280;3554;42.132;24.786;2023-07-30T03:45:29;99019.63;;;23.34;100.00
7026;BME280;3554;42.132;24.786;2023-07-30T03:47:56;99026.19;;;23.75;100.00
7026;BME280;3554;42.132;24.786;2023-07-30T03:50:23;99027.84;;;24.03;100.00
7026;BME280;3554;42.132;24.786;2023-07-30T03:52:50;99026.19;;;24.27;100.00
7026;BME280;3554;42.132;24.786;2023-07-30T03:55:16;99035.03;;;24.54;100.00
7026;BME280;3554;42.132;24.786;2023-07-30T03:57:44;99039.22;;;24.74;100.00
7026;BME280;3554;42.132;24.786;2023-07-30T04:00:11;99038.50;;;24.97;100.00
7026;BME280;3554;42.132;24.786;2023-07-30T04:02:38;99030.34;;;25.15;100.00
7026;BME280;3554;42.132;24.786;2023-07-30T04:05:05;99039.25;;;25.31;100.00
7026;BME280;3554;42.132;24.786;2023-07-30T04:07:32;99045.72;;;25.55;100.00
7026;BME280;3554;42.132;24.786;2023-07-30T04:09:59;99047.09;;;25.75;100.00
7026;BME280;3554;42.132;24.786;2023-07-30T04:12:26;99048.13;;;25.82;100.00
7026;BME280;3554;42.132;24.786;2023-07-30T04:14:54;99054.16;;;25.92;100.00
7026;BME280;3554;42.132;24.786;2023-07-30T04:17:20;99048.00;;;26.15;100.00
7026;BME280;3554;42.132;24.786;2023-07-30T04:19:47;99053.38;;;26.15;100.00
7026;BME280;3554;42.132;24.786;2023-07-30T04:22:14;99057.03;;;25.32;100.00
7026;BME280;3554;42.132;24.786;2023-07-30T04:24:41;99060.38;;;24.67;100.00
7026;BME280;3554;42.132;24.786;2023-07-30T04:27:08;99050.81;;;24.82;100.00
7026;BME280;3554;42.132;24.786;2023-07-30T04:29:34;99055.22;;;25.33;100.00
7026;BME280;3554;42.132;24.786;2023-07-30T04:32:03;99063.88;;;26.01;100.00
7026;BME280;3554;42.132;24.786;2023-07-30T04:34:30;99081.00;;;26.56;100.00
7026;BME280;3554;42.132;24.786;2023-07-30T04:36:57;99077.28;;;26.89;100.00
7026;BME280;3554;42.132;24.786;2023-07-30T04:39:23;99067.78;;;26.22;100.00
7026;BME280;3554;42.132;24.786;2023-07-30T04:41:50;99065.84;;;25.59;100.00
7026;BME280;3554;42.132;24.786;2023-07-30T04:44:17;99077.78;;;25.72;100.00
7026;BME280;3554;42.132;24.786;2023-07-30T04:46:44;99061.16;;;25.69;100.00
7026;BME280;3554;42.132;24.786;2023-07-30T04:49:12;99076.53;;;26.16;100.00
7026;BME280;3554;42.132;24.786;2023-07-30T04:51:39;99067.59;;;26.40;100.00
7026;BME280;3554;42.132;24.786;2023-07-30T04:54:06;99078.19;;;26.50;100.00
7026;BME280;3554;42.132;24.786;2023-07-30T04:56:32;99081.00;;;26.80;100.00
7026;BME280;3554;42.132;24.786;2023-07-30T04:59:00;99071.75;;;25.70;100.00
7026;BME280;3554;42.132;24.786;2023-07-30T05:01:27;99051.47;;;25.76;100.00
7026;BME280;3554;42.132;24.786;2023-07-30T05:03:54;99067.41;;;26.01;100.00
7026;BME280;3554;42.132;24.786;2023-07-30T05:06:23;99071.66;;;26.04;100.00
7026;BME280;3554;42.132;24.786;2023-07-30T05:08:50;99073.63;;;25.86;100.00
7026;BME280;3554;42.132;24.786;2023-07-30T05:11:16;99070.28;;;26.48;100.00
7026;BME280;3554;42.132;24.786;2023-07-30T05:13:43;99076.09;;;27.00;100.00
7026;BME280;3554;42.132;24.786;2023-07-30T05:16:10;99083.19;;;26.77;100.00
7026;BME280;3554;42.132;24.786;2023-07-30T05:18:37;99074.78;;;26.64;100.00
7026;BME280;3554;42.132;24.786;2023-07-30T05:21:04;99077.34;;;26.73;100.00
7026;BME280;3554;42.132;24.786;2023-07-30T05:23:32;99074.13;;;26.78;100.00
7026;BME280;3554;42.132;24.786;2023-07-30T05:25:59;99078.28;;;26.96;100.00
7026;BME280;3554;42.132;24.786;2023-07-30T05:28:26;99079.75;;;27.54;100.00
7026;BME280;3554;42.132;24.786;2023-07-30T05:30:52;99091.13;;;27.17;100.00
7026;BME280;3554;42.132;24.786;2023-07-30T05:33:19;99087.94;;;27.13;100.00
7026;BME280;3554;42.132;24.786;2023-07-30T05:35:46;99092.69;;;27.03;100.00
7026;BME280;3554;42.132;24.786;2023-07-30T05:38:13;99091.97;;;27.56;100.00
7026;BME280;3554;42.132;24.786;2023-07-30T05:40:41;99083.63;;;27.74;97.81
7026;BME280;3554;42.132;24.786;2023-07-30T05:43:08;99088.06;;;27.28;97.49
7026;BME280;3554;42.132;24.786;2023-07-30T05:45:35;99057.72;;;27.11;98.85
7026;BME280;3554;42.132;24.786;2023-07-30T05:48:02;99095.69;;;27.16;100.00
7026;BME280;3554;42.132;24.786;2023-07-30T05:50:29;99089.91;;;26.65;100.00
7026;BME280;3554;42.132;24.786;2023-07-30T05:52:55;99087.53;;;26.86;100.00
7026;BME280;3554;42.132;24.786;2023-07-30T05:55:22;99084.84;;;27.40;100.00
7026;BME280;3554;42.132;24.786;2023-07-30T05:57:50;99095.63;;;27.63;93.67
7026;BME280;3554;42.132;24.786;2023-07-30T06:00:19;99091.56;;;27.44;95.73
7026;BME280;3554;42.132;24.786;2023-07-30T06:02:45;99090.41;;;27.70;93.86
7026;BME280;3554;42.132;24.786;2023-07-30T06:05:12;99093.66;;;28.33;92.59
7026;BME280;3554;42.132;24.786;2023-07-30T06:07:39;99094.72;;;28.69;85.45
7026;BME280;3554;42.132;24.786;2023-07-30T06:10:07;99083.47;;;28.66;81.51
7026;BME280;3554;42.132;24.786;2023-07-30T06:12:33;99093.06;;;28.83;81.20
7026;BME280;3554;42.132;24.786;2023-07-30T06:15:02;99084.63;;;29.15;81.68
7026;BME280;3554;42.132;24.786;2023-07-30T06:17:29;99076.34;;;29.31;80.46
7026;BME280;3554;42.132;24.786;2023-07-30T06:19:55;99084.50;;;29.37;80.81
7026;BME280;3554;42.132;24.786;2023-07-30T06:22:22;99088.59;;;29.48;74.43
7026;BME280;3554;42.132;24.786;2023-07-30T06:24:49;99086.69;;;29.63;75.58
7026;BME280;3554;42.132;24.786;2023-07-30T06:27:16;99088.78;;;29.46;74.64
7026;BME280;3554;42.132;24.786;2023-07-30T06:29:42;99090.53;;;29.54;77.75
7026;BME280;3554;42.132;24.786;2023-07-30T06:32:11;99055.34;;;29.26;79.00
7026;BME280;3554;42.132;24.786;2023-07-30T06:34:37;99082.44;;;29.69;77.32
7026;BME280;3554;42.132;24.786;2023-07-30T06:37:04;99088.94;;;29.60;78.09
7026;BME280;3554;42.132;24.786;2023-07-30T06:39:31;99084.41;;;29.96;74.85
7026;BME280;3554;42.132;24.786;2023-07-30T06:41:58;99078.91;;;30.10;73.38
7026;BME280;3554;42.132;24.786;2023-07-30T06:44:24;99083.50;;;29.89;72.72
7026;BME280;3554;42.132;24.786;2023-07-30T06:46:51;99077.50;;;30.14;72.86
7026;BME280;3554;42.132;24.786;2023-07-30T06:49:19;99087.81;;;30.46;70.09
7026;BME280;3554;42.132;24.786;2023-07-30T06:51:47;99076.81;;;30.06;68.67
7026;BME280;3554;42.132;24.786;2023-07-30T06:54:13;99071.16;;;30.01;71.45
7026;BME280;3554;42.132;24.786;2023-07-30T06:56:40;99074.38;;;30.11;70.51
7026;BME280;3554;42.132;24.786;2023-07-30T06:59:07;99066.03;;;30.27;71.02
7026;BME280;3554;42.132;24.786;2023-07-30T07:01:34;99059.00;;;30.32;70.97
7026;BME280;3554;42.132;24.786;2023-07-30T07:04:00;99064.13;;;30.48;70.57
7026;BME280;3554;42.132;24.786;2023-07-30T07:06:28;99058.13;;;30.53;68.24
7026;BME280;3554;42.132;24.786;2023-07-30T07:08:55;99058.59;;;30.14;67.11
7026;BME280;3554;42.132;24.786;2023-07-30T07:11:24;99055.22;;;30.27;66.77
7026;BME280;3554;42.132;24.786;2023-07-30T07:13:51;99052.16;;;29.37;71.18
7026;BME280;3554;42.132;24.786;2023-07-30T07:16:18;99026.47;;;29.41;72.03
7026;BME280;3554;42.132;24.786;2023-07-30T07:18:45;99051.31;;;30.08;72.26
7026;BME280;3554;42.132;24.786;2023-07-30T07:21:12;99043.03;;;29.38;70.95
7026;BME280;3554;42.132;24.786;2023-07-30T07:23:40;99046.84;;;29.44;71.51
7026;BME280;3554;42.132;24.786;2023-07-30T07:26:06;99038.44;;;29.89;69.53
7026;BME280;3554;42.132;24.786;2023-07-30T07:28:33;99044.56;;;30.46;69.01
7026;BME280;3554;42.132;24.786;2023-07-30T07:31:00;99045.31;;;30.13;67.38
7026;BME280;3554;42.132;24.786;2023-07-30T07:33:27;99050.97;;;30.67;67.29
7026;BME280;3554;42.132;24.786;2023-07-30T07:36:02;99041.38;;;30.92;66.15
7026;BME280;3554;42.132;24.786;2023-07-30T07:38:29;99035.44;;;31.09;62.54
7026;BME280;3554;42.132;24.786;2023-07-30T07:40:58;99040.53;;;31.32;65.38
7026;BME280;3554;42.132;24.786;2023-07-30T07:43:24;99015.34;;;30.84;64.02
7026;BME280;3554;42.132;24.786;2023-07-30T07:45:51;99039.78;;;30.00;64.84
7026;BME280;3554;42.132;24.786;2023-07-30T07:48:18;99031.44;;;29.59;70.40
7026;BME280;3554;42.132;24.786;2023-07-30T07:50:45;99030.16;;;30.33;70.79
7026;BME280;3554;42.132;24.786;2023-07-30T07:53:12;99032.75;;;30.05;65.79
7026;BME280;3554;42.132;24.786;2023-07-30T07:55:39;99028.91;;;29.93;66.81
7026;BME280;3554;42.132;24.786;2023-07-30T07:58:07;99032.59;;;30.28;64.37
7026;BME280;3554;42.132;24.786;2023-07-30T08:00:34;99035.28;;;30.83;64.19
7026;BME280;3554;42.132;24.786;2023-07-30T08:03:01;99030.91;;;31.16;62.01
7026;BME280;3554;42.132;24.786;2023-07-30T08:05:27;99023.97;;;31.41;59.45
7026;BME280;3554;42.132;24.786;2023-07-30T08:07:55;99036.69;;;31.54;57.00
7026;BME280;3554;42.132;24.786;2023-07-30T08:10:21;99033.31;;;31.45;55.56
7026;BME280;3554;42.132;24.786;2023-07-30T08:12:48;99029.19;;;31.49;56.20
7026;BME280;3554;42.132;24.786;2023-07-30T08:15:16;99021.53;;;31.60;57.13
7026;BME280;3554;42.132;24.786;2023-07-30T08:17:43;99015.09;;;31.80;54.85
7026;BME280;3554;42.132;24.786;2023-07-30T08:20:11;99009.44;;;31.56;55.95
7026;BME280;3554;42.132;24.786;2023-07-30T08:22:37;99022.69;;;31.37;55.37
7026;BME280;3554;42.132;24.786;2023-07-30T08:25:06;99015.41;;;31.38;56.65
7026;BME280;3554;42.132;24.786;2023-07-30T08:27:33;99003.78;;;31.50;54.47
7026;BME280;3554;42.132;24.786;2023-07-30T08:29:59;99011.97;;;31.70;52.90
7026;BME280;3554;42.132;24.786;2023-07-30T08:32:28;99011.13;;;31.76;54.34
7026;BME280;3554;42.132;24.786;2023-07-30T08:34:54;99003.63;;;31.72;54.72
7026;BME280;3554;42.132;24.786;2023-07-30T08:37:21;99002.78;;;31.71;52.93
7026;BME280;3554;42.132;24.786;2023-07-30T08:39:48;98967.00;;;31.76;52.64
7026;BME280;3554;42.132;24.786;2023-07-30T08:42:15;98986.81;;;32.02;52.79
7026;BME280;3554;42.132;24.786;2023-07-30T08:44:42;98981.59;;;32.20;56.34
7026;BME280;3554;42.132;24.786;2023-07-30T08:47:09;98980.16;;;32.31;54.07
7026;BME280;3554;42.132;24.786;2023-07-30T08:49:37;98958.25;;;32.32;50.81
7026;BME280;3554;42.132;24.786;2023-07-30T08:52:08;98966.38;;;32.45;52.17
7026;BME280;3554;42.132;24.786;2023-07-30T08:54:37;98975.72;;;32.69;51.13
7026;BME280;3554;42.132;24.786;2023-07-30T08:57:04;98959.47;;;32.56;51.54
7026;BME280;3554;42.132;24.786;2023-07-30T08:59:36;98949.44;;;32.63;50.68
7026;BME280;3554;42.132;24.786;2023-07-30T09:02:04;98964.72;;;32.44;49.92
7026;BME280;3554;42.132;24.786;2023-07-30T09:04:38;98958.47;;;32.31;51.48
7026;BME280;3554;42.132;24.786;2023-07-30T09:07:08;98949.25;;;32.38;50.44
7026;BME280;3554;42.132;24.786;2023-07-30T09:09:35;98954.09;;;32.43;50.44
7026;BME280;3554;42.132;24.786;2023-07-30T09:12:04;98949.84;;;32.67;53.67
7026;BME280;3554;42.132;24.786;2023-07-30T09:14:31;98882.78;;;32.42;50.18
7026;BME280;3554;42.132;24.786;2023-07-30T09:16:58;98940.84;;;32.86;49.12
7026;BME280;3554;42.132;24.786;2023-07-30T09:19:25;98941.41;;;33.07;48.96
7026;BME280;3554;42.132;24.786;2023-07-30T09:21:53;98943.84;;;33.15;46.66
7026;BME280;3554;42.132;24.786;2023-07-30T09:24:21;98937.19;;;33.11;45.99
7026;BME280;3554;42.132;24.786;2023-07-30T09:26:48;98927.84;;;33.07;46.92
7026;BME280;3554;42.132;24.786;2023-07-30T09:29:15;98932.28;;;32.76;46.41
7026;BME280;3554;42.132;24.786;2023-07-30T09:31:48;98923.97;;;32.77;48.72
7026;BME280;3554;42.132;24.786;2023-07-30T09:34:16;98914.84;;;32.59;51.34
7026;BME280;3554;42.132;24.786;2023-07-30T09:36:44;98910.72;;;32.43;51.84
7026;BME280;3554;42.132;24.786;2023-07-30T09:39:16;98913.63;;;32.48;50.74
7026;BME280;3554;42.132;24.786;2023-07-30T09:41:44;98899.16;;;32.74;51.18
7026;BME280;3554;42.132;24.786;2023-07-30T09:44:11;98900.31;;;32.46;49.66
7026;BME280;3554;42.132;24.786;2023-07-30T09:46:42;98907.97;;;32.63;49.40
7026;BME280;3554;42.132;24.786;2023-07-30T09:49:10;98904.38;;;32.69;51.03
7026;BME280;3554;42.132;24.786;2023-07-30T09:51:37;98889.22;;;32.61;47.64
7026;BME280;3554;42.132;24.786;2023-07-30T09:54:06;98861.25;;;32.61;45.66
7026;BME280;3554;42.132;24.786;2023-07-30T09:56:34;98882.13;;;33.04;46.43
7026;BME280;3554;42.132;24.786;2023-07-30T09:59:01;98886.81;;;33.22;47.46
7026;BME280;3554;42.132;24.786;2023-07-30T10:01:29;98882.41;;;33.27;47.96
7026;BME280;3554;42.132;24.786;2023-07-30T10:03:57;98874.72;;;33.24;47.69
7026;BME280;3554;42.132;24.786;2023-07-30T10:06:27;98882.78;;;33.37;45.83
7026;BME280;3554;42.132;24.786;2023-07-30T10:08:57;98869.56;;;33.16;45.81
7026;BME280;3554;42.132;24.786;2023-07-30T10:11:26;98855.63;;;33.06;46.63
7026;BME280;3554;42.132;24.786;2023-07-30T10:13:55;98855.63;;;33.37;46.73
7026;BME280;3554;42.132;24.786;2023-07-30T10:16:25;98860.69;;;32.96;47.15
7026;BME280;3554;42.132;24.786;2023-07-30T10:18:56;98814.22;;;32.80;45.75
7026;BME280;3554;42.132;24.786;2023-07-30T10:21:25;98850.97;;;33.13;46.90
7026;BME280;3554;42.132;24.786;2023-07-30T10:24:00;98846.31;;;33.27;47.20
7026;BME280;3554;42.132;24.786;2023-07-30T10:26:27;98837.72;;;33.30;46.36
7026;BME280;3554;42.132;24.786;2023-07-30T10:29:16;98845.03;;;32.98;46.33
7026;BME280;3554;42.132;24.786;2023-07-30T10:31:48;98844.72;;;33.13;45.04
7026;BME280;3554;42.132;24.786;2023-07-30T10:34:15;98841.03;;;33.01;46.03
7026;BME280;3554;42.132;24.786;2023-07-30T10:36:43;98815.00;;;32.87;45.70
7026;BME280;3554;42.132;24.786;2023-07-30T10:39:12;98825.59;;;33.01;45.37
7026;BME280;3554;42.132;24.786;2023-07-30T10:41:39;98814.56;;;32.90;45.33
7026;BME280;3554;42.132;24.786;2023-07-30T10:44:06;98829.97;;;33.02;46.48
7026;BME280;3554;42.132;24.786;2023-07-30T10:46:34;98825.91;;;33.18;46.89
7026;BME280;3554;42.132;24.786;2023-07-30T10:49:03;98821.44;;;33.30;46.17
7026;BME280;3554;42.132;24.786;2023-07-30T10:51:31;98831.00;;;33.32;47.35
7026;BME280;3554;42.132;24.786;2023-07-30T10:53:59;98824.06;;;33.43;45.78
7026;BME280;3554;42.132;24.786;2023-07-30T10:56:26;98822.28;;;33.30;43.23
7026;BME280;3554;42.132;24.786;2023-07-30T10:58:53;98828.75;;;33.29;42.59
7026;BME280;3554;42.132;24.786;2023-07-30T11:01:24;98790.72;;;33.36;42.92
7026;BME280;3554;42.132;24.786;2023-07-30T11:03:53;98822.56;;;33.72;42.22
7026;BME280;3554;42.132;24.786;2023-07-30T11:06:23;98822.81;;;33.45;38.10
7026;BME280;3554;42.132;24.786;2023-07-30T11:08:50;98825.53;;;33.39;37.11
7026;BME280;3554;42.132;24.786;2023-07-30T11:11:17;98813.63;;;33.46;37.44
7026;BME280;3554;42.132;24.786;2023-07-30T11:13:45;98811.38;;;33.62;37.79
7026;BME280;3554;42.132;24.786;2023-07-30T11:16:13;98789.13;;;33.53;39.74
7026;BME280;3554;42.132;24.786;2023-07-30T11:18:41;98800.97;;;33.59;40.66
7026;BME280;3554;42.132;24.786;2023-07-30T11:21:10;98793.97;;;33.69;40.32
7026;BME280;3554;42.132;24.786;2023-07-30T11:23:39;98802.75;;;33.71;37.99
7026;BME280;3554;42.132;24.786;2023-07-30T11:26:09;98792.09;;;33.88;40.04
7026;BME280;3554;42.132;24.786;2023-07-30T11:28:37;98802.88;;;34.01;37.65
7026;BME280;3554;42.132;24.786;2023-07-30T11:31:05;98793.41;;;33.85;36.21
7026;BME280;3554;42.132;24.786;2023-07-30T11:33:33;98790.78;;;33.97;37.96
7026;BME280;3554;42.132;24.786;2023-07-30T11:36:02;98778.13;;;34.09;36.62
7026;BME280;3554;42.132;24.786;2023-07-30T11:38:32;98766.72;;;34.00;37.00
7026;BME280;3554;42.132;24.786;2023-07-30T11:40:59;98739.06;;;33.85;38.44
7026;BME280;3554;42.132;24.786;2023-07-30T11:43:26;98754.47;;;34.09;39.20
7026;BME280;3554;42.132;24.786;2023-07-30T11:46:12;98767.31;;;34.20;38.60
7026;BME280;3554;42.132;24.786;2023-07-30T11:48:40;98752.22;;;34.06;38.17
7026;BME280;3554;42.132;24.786;2023-07-30T11:51:17;98761.13;;;34.31;37.84
7026;BME280;3554;42.132;24.786;2023-07-30T11:53:46;98763.31;;;34.41;34.74
7026;BME280;3554;42.132;24.786;2023-07-30T11:56:19;98750.47;;;34.30;35.31
7026;BME280;3554;42.132;24.786;2023-07-30T11:58:47;98755.16;;;34.41;35.10
7026;BME280;3554;42.132;24.786;2023-07-30T12:01:14;98744.25;;;34.59;34.67
7026;BME280;3554;42.132;24.786;2023-07-30T12:03:41;98737.56;;;34.07;35.33
7026;BME280;3554;42.132;24.786;2023-07-30T12:06:09;98738.63;;;34.24;34.55
7026;BME280;3554;42.132;24.786;2023-07-30T12:08:36;98730.16;;;34.32;34.57
7026;BME280;3554;42.132;24.786;2023-07-30T12:11:05;98720.75;;;34.17;34.44
7026;BME280;3554;42.132;24.786;2023-07-30T12:13:32;98722.41;;;34.18;34.38
7026;BME280;3554;42.132;24.786;2023-07-30T12:15:59;98714.69;;;34.15;33.93
7026;BME280;3554;42.132;24.786;2023-07-30T12:18:26;98710.38;;;34.43;34.57
7026;BME280;3554;42.132;24.786;2023-07-30T12:20:54;98687.53;;;34.15;34.02
7026;BME280;3554;42.132;24.786;2023-07-30T12:23:22;98649.88;;;34.00;33.86
7026;BME280;3554;42.132;24.786;2023-07-30T12:25:48;98686.88;;;34.31;33.89
7026;BME280;3554;42.132;24.786;2023-07-30T12:28:17;98696.28;;;34.17;32.67
7026;BME280;3554;42.132;24.786;2023-07-30T12:30:43;98689.56;;;34.19;33.10
7026;BME280;3554;42.132;24.786;2023-07-30T12:33:10;98698.69;;;34.25;32.14
7026;BME280;3554;42.132;24.786;2023-07-30T12:35:37;98692.09;;;34.32;31.77
7026;BME280;3554;42.132;24.786;2023-07-30T12:38:04;98697.28;;;34.52;31.91
7026;BME280;3554;42.132;24.786;2023-07-30T12:40:31;98697.00;;;34.72;31.43
7026;BME280;3554;42.132;24.786;2023-07-30T12:43:00;98693.06;;;34.97;32.26
7026;BME280;3554;42.132;24.786;2023-07-30T12:45:29;98687.16;;;35.12;31.54
7026;BME280;3554;42.132;24.786;2023-07-30T12:47:57;98673.09;;;35.03;31.93
7026;BME280;3554;42.132;24.786;2023-07-30T12:50:24;98681.47;;;35.25;31.84
7026;BME280;3554;42.132;24.786;2023-07-30T12:52:50;98669.78;;;35.24;31.85
7026;BME280;3554;42.132;24.786;2023-07-30T12:55:17;98666.09;;;35.07;30.90
7026;BME280;3554;42.132;24.786;2023-07-30T12:57:44;98672.59;;;35.29;31.59
7026;BME280;3554;42.132;24.786;2023-07-30T13:00:12;98672.84;;;35.28;30.92
7026;BME280;3554;42.132;24.786;2023-07-30T13:02:40;98664.16;;;34.85;31.42
7026;BME280;3554;42.132;24.786;2023-07-30T13:05:07;98661.91;;;34.82;31.29
7026;BME280;3554;42.132;24.786;2023-07-30T13:07:34;98647.09;;;34.89;31.32